Time;durP1;ratioP1;P1;durP2;ratioP2;P2;SDS_P1;SDS_P2;PMS_P1;PMS_P2;Temp;Humidity;BMP_temperature;BMP_pressure;BME280_temperature;BME280_humidity;BME280_pressure;Samples;Min_cycle;Max_cycle;Signal;HPM_P1;HPM_P2
2023/06/26 00:00:05;;;;;;;10.10;7.80;;;;;;;18.54;75.18;98932.14;107300;1256;72674;-39
2023/06/26 00:02:33;;;;;;;12.80;7.60;;;;;;;18.53;75.03;98931.91;107270;1256;60421;-39
2023/06/26 00:05:09;;;;;;;10.30;7.40;;;;;;;18.52;74.93;98927.61;107338;1257;60054;-39
2023/06/26 00:08:00;;;;;;;;;;;;;;;18.49;74.82;98927.02;107248;1258;73984;-38
2023/06/26 00:10:28;;;;;;;9.60;6.70;;;;;;;18.46;74.97;98927.40;107415;1254;66640;-39
2023/06/26 00:12:55;;;;;;;11.30;8.10;;;;;;;18.46;75.28;98922.88;107334;1256;72057;-39
2023/06/26 00:15:24;;;;;;;11.70;7.30;;;;;;;18.51;75.30;98925.27;107230;1254;60428;-41
2023/06/26 00:17:51;;;;;;;8.90;7.50;;;;;;;18.50;75.24;98925.61;107465;1254;60306;-39
2023/06/26 00:20:19;;;;;;;8.60;7.50;;;;;;;18.49;75.29;98924.05;107439;1254;73896;-39
2023/06/26 00:22:47;;;;;;;9.80;7.50;;;;;;;18.49;75.33;98921.38;107442;1256;67604;-39
2023/06/26 00:25:14;;;;;;;12.50;8.10;;;;;;;18.51;75.16;98915.70;107234;1256;70970;-39
2023/06/26 00:27:42;;;;;;;9.10;7.60;;;;;;;18.50;75.04;98916.56;107121;1256;60348;-39
2023/06/26 00:30:10;;;;;;;11.20;7.90;;;;;;;18.49;75.08;98913.55;107166;1260;59336;-39
2023/06/26 00:32:38;;;;;;;10.00;8.10;;;;;;;18.47;75.06;98911.93;107208;1256;73928;-39
2023/06/26 00:35:06;;;;;;;11.20;7.60;;;;;;;18.44;74.97;98909.64;107106;1256;66049;-39
2023/06/26 00:37:34;;;;;;;10.70;7.40;;;;;;;18.45;74.67;98910.50;109069;1255;73185;-40
2023/06/26 00:40:04;;;;;;;10.60;7.40;;;;;;;18.47;74.82;98916.16;108906;1255;229294;-40
2023/06/26 00:43:43;;;;;;;8.70;7.70;;;;;;;18.50;74.67;98916.36;104126;1292;601061;-39
2023/06/26 00:46:14;;;;;;;9.40;8.40;;;;;;;18.42;74.62;98917.61;106461;1267;59301;-39
2023/06/26 00:48:43;;;;;;;11.30;7.90;;;;;;;18.34;74.79;98914.01;106716;1262;60066;-39
2023/06/26 00:51:12;;;;;;;9.50;7.50;;;;;;;18.32;74.95;98914.75;106862;1262;71246;-38
2023/06/26 00:53:40;;;;;;;11.00;8.00;;;;;;;18.32;75.10;98914.91;106784;1262;67892;-39
2023/06/26 00:56:08;;;;;;;9.50;8.40;;;;;;;18.32;75.31;98916.71;106653;1264;72721;-38
2023/06/26 00:58:36;;;;;;;11.90;8.30;;;;;;;18.27;75.29;98912.95;106972;1261;60291;-39
2023/06/26 01:01:05;;;;;;;11.70;8.00;;;;;;;18.22;75.39;98916.66;107041;1261;60051;-39
2023/06/26 01:03:33;;;;;;;;;;;;;;;18.22;75.52;98915.48;107057;1259;72311;-39
2023/06/26 01:06:01;;;;;;;9.10;7.70;;;;;;;18.14;75.64;98915.48;107016;1261;67907;-39
2023/06/26 01:08:32;;;;;;;9.90;7.90;;;;;;;17.97;76.39;98911.27;107063;1264;71508;-39
2023/06/26 01:10:59;;;;;;;11.60;8.30;;;;;;;17.87;77.17;98914.26;106892;1266;59486;-39
2023/06/26 01:13:28;;;;;;;14.70;9.00;;;;;;;17.79;77.75;98913.92;106919;1261;60119;-39
2023/06/26 01:15:57;;;;;;;11.50;8.10;;;;;;;17.79;78.25;98914.38;107046;1259;73023;-39
2023/06/26 01:18:25;;;;;;;11.70;8.40;;;;;;;17.82;78.31;98913.88;107043;1260;67640;-39
2023/06/26 01:20:53;;;;;;;12.70;9.00;;;;;;;17.82;78.47;98911.52;106983;1260;72708;-39
2023/06/26 01:23:23;;;;;;;10.20;8.80;;;;;;;17.81;78.59;98908.48;107026;1266;60082;-39
2023/06/26 01:29:32;;;;;;;11.60;8.70;;;;;;;17.85;78.46;98903.58;106766;1261;71902;-42
2023/06/26 01:32:24;;;;;;;9.50;7.80;;;;;;;17.86;78.53;98900.27;106788;1260;66528;-40
2023/06/26 01:34:53;;;;;;;12.40;9.30;;;;;;;17.83;78.67;98898.58;106912;1259;71430;-39
2023/06/26 01:37:21;;;;;;;10.70;9.60;;;;;;;17.82;78.70;98903.05;106921;1260;59599;-39
2023/06/26 01:39:49;;;;;;;11.40;9.60;;;;;;;17.81;78.63;98901.35;106932;1259;60031;-40
2023/06/26 01:42:28;;;;;;;13.10;8.40;;;;;;;17.83;78.31;98899.68;106854;1259;73880;-42
2023/06/26 01:45:23;;;;;;;13.80;9.30;;;;;;;17.90;78.09;98900.48;107210;1255;68479;-38
2023/06/26 01:47:52;;;;;;;11.60;9.60;;;;;;;17.93;77.64;98897.14;107271;1254;71450;-39
2023/06/26 01:50:39;;;;;;;12.10;10.90;;;;;;;17.92;77.59;98894.96;107156;1254;61298;-38
2023/06/26 01:53:21;;;;;;;15.50;10.10;;;;;;;17.92;77.65;98891.20;107416;1254;60043;-39
2023/06/26 01:56:18;;;;;;;;;;;;;;;;;;;;;
2023/06/26 01:58:57;;;;;;;12.80;10.80;;;;;;;18.02;77.01;98888.98;107390;1257;66273;-38
2023/06/26 02:01:25;;;;;;;13.40;11.30;;;;;;;18.00;76.83;98885.59;107318;1260;72721;-38
2023/06/26 02:03:53;;;;;;;17.30;12.40;;;;;;;18.01;76.87;98886.34;107226;1257;59688;-38
2023/06/26 02:06:21;;;;;;;12.10;10.70;;;;;;;18.01;77.12;98888.55;107264;1259;60006;-38
2023/06/26 02:08:48;;;;;;;14.90;11.30;;;;;;;18.01;76.97;98887.69;107249;1255;73026;-38
2023/06/26 02:11:16;;;;;;;14.10;11.40;;;;;;;18.00;77.02;98885.11;107255;1257;66199;-38
2023/06/26 02:13:44;;;;;;;14.00;11.00;;;;;;;18.01;77.09;98882.73;107315;1254;71812;-37
2023/06/26 02:16:12;;;;;;;15.80;11.40;;;;;;;17.98;77.30;98884.59;107220;1257;60043;-38
2023/06/26 02:18:42;;;;;;;13.80;10.00;;;;;;;17.91;77.36;98884.16;107423;1259;59564;-38
2023/06/26 02:21:10;;;;;;;14.30;10.40;;;;;;;17.91;77.61;98887.40;107281;1254;73073;-38
2023/06/26 02:23:38;;;;;;;12.40;10.10;;;;;;;17.93;77.65;98885.86;107285;1254;66283;-38
2023/06/26 02:26:06;;;;;;;14.20;10.60;;;;;;;17.95;77.73;98886.36;107284;1259;72699;-38
2023/06/26 02:28:34;;;;;;;13.30;10.30;;;;;;;17.96;77.88;98882.35;107201;1257;62320;-37
2023/06/26 02:31:02;;;;;;;12.00;9.90;;;;;;;17.94;78.05;98881.85;107374;1254;59691;-39
2023/06/26 02:33:32;;;;;;;11.30;9.90;;;;;;;17.95;77.86;98887.88;107363;1260;71766;-37
2023/06/26 02:36:00;;;;;;;12.40;10.60;;;;;;;17.94;77.93;98888.04;107252;1258;68661;-37
2023/06/26 02:38:27;;;;;;;12.70;10.60;;;;;;;17.90;78.12;98886.63;107195;1257;71631;-37
2023/06/26 02:40:55;;;;;;;11.20;10.00;;;;;;;17.86;78.52;98885.99;107269;1258;59489;-37
2023/06/26 02:43:23;;;;;;;10.70;9.60;;;;;;;17.83;78.55;98885.80;107303;1257;59112;-37
2023/06/26 02:45:51;;;;;;;11.50;9.90;;;;;;;17.83;78.76;98889.27;107313;1263;73062;-37
2023/06/26 02:48:19;;;;;;;24.50;10.10;;;;;;;17.89;78.78;98888.44;107297;1257;67650;-38
2023/06/26 02:50:47;;;;;;;26.20;10.10;;;;;;;17.92;78.62;98882.59;107225;1257;71205;-38
2023/06/26 02:53:15;;;;;;;13.30;9.60;;;;;;;17.88;78.43;98882.89;107285;1258;59601;-38
2023/06/26 02:55:47;;;;;;;9.90;8.70;;;;;;;17.83;78.64;98883.70;107277;1259;59934;-38
2023/06/26 02:58:15;;;;;;;15.20;9.10;;;;;;;17.81;78.44;98883.02;107235;1261;71918;-38
2023/06/26 03:00:44;;;;;;;16.50;9.50;;;;;;;17.77;78.54;98879.72;107323;1257;67492;-37
2023/06/26 03:03:15;;;;;;;17.00;9.20;;;;;;;17.73;78.62;98881.83;107320;1255;71405;-38
2023/06/26 03:05:42;;;;;;;15.90;9.80;;;;;;;17.70;79.05;98885.73;107277;1258;60083;-38
2023/06/26 03:08:10;;;;;;;11.40;9.70;;;;;;;17.67;79.23;98885.61;107264;1260;59461;-38
2023/06/26 03:10:38;;;;;;;15.30;9.50;;;;;;;17.66;79.46;98882.58;107354;1257;70771;-39
2023/06/26 03:13:06;;;;;;;11.10;9.90;;;;;;;17.70;79.63;98886.25;107064;1257;66216;-39
2023/06/26 03:15:34;;;;;;;12.80;10.70;;;;;;;17.70;79.75;98884.78;107058;1260;71452;-39
2023/06/26 03:18:01;;;;;;;13.10;11.10;;;;;;;17.71;79.71;98884.21;107254;1257;59589;-39
2023/06/26 03:20:29;;;;;;;10.90;9.80;;;;;;;17.70;79.86;98882.36;107299;1256;59601;-39
2023/06/26 03:22:58;;;;;;;12.00;9.20;;;;;;;17.73;79.85;98882.14;107293;1257;73121;-39
2023/06/26 03:25:26;;;;;;;12.30;10.40;;;;;;;17.78;79.90;98879.16;107143;1262;68032;-39
2023/06/26 03:28:32;;;;;;;11.80;10.50;;;;;;;17.79;79.67;98876.71;107202;1258;72705;-39
2023/06/26 03:31:00;;;;;;;11.80;9.90;;;;;;;17.73;79.84;98873.91;107288;1260;60416;-39
2023/06/26 03:33:27;;;;;;;11.50;9.40;;;;;;;17.74;79.69;98877.82;107184;1260;60065;-39
2023/06/26 03:35:55;;;;;;;12.00;10.30;;;;;;;17.74;79.85;98874.69;107310;1257;73073;-39
2023/06/26 03:38:23;;;;;;;11.40;8.90;;;;;;;17.78;80.01;98881.66;107328;1260;67578;-39
2023/06/26 03:40:52;;;;;;;10.80;9.70;;;;;;;17.80;80.03;98880.67;107305;1257;72668;-39
2023/06/26 03:43:20;;;;;;;10.10;8.70;;;;;;;17.77;79.48;98878.63;107125;1257;60556;-39
2023/06/26 03:45:59;;;;;;;11.50;9.50;;;;;;;17.74;79.75;98877.11;107252;1258;59675;-39
2023/06/26 03:48:27;;;;;;;11.10;8.60;;;;;;;17.75;80.04;98873.73;107289;1257;73068;-39
2023/06/26 03:50:55;;;;;;;11.60;9.00;;;;;;;17.78;79.90;98873.76;107160;1257;67586;-39
2023/06/26 03:53:24;;;;;;;15.20;9.70;;;;;;;17.80;79.85;98870.90;107243;1260;72075;-39
2023/06/26 03:55:51;;;;;;;10.70;9.40;;;;;;;17.87;79.76;98870.54;107220;1259;61853;-39
2023/06/26 03:58:26;;;;;;;10.50;9.40;;;;;;;17.91;79.63;98872.17;107295;1259;59509;-39
2023/06/26 04:00:55;;;;;;;11.50;10.00;;;;;;;17.88;79.40;98872.38;107213;1260;73800;-39
2023/06/26 04:03:29;;;;;;;13.60;10.10;;;;;;;17.84;79.52;98872.48;107169;1262;67956;-38
2023/06/26 04:06:01;;;;;;;14.70;10.20;;;;;;;17.83;79.39;98871.55;107154;1262;72612;-37
2023/06/26 04:08:28;;;;;;;11.70;10.00;;;;;;;17.86;79.51;98873.08;107127;1257;60170;-37
2023/06/26 04:10:58;;;;;;;13.00;11.10;;;;;;;17.87;79.49;98871.48;107170;1256;59487;-38
2023/06/26 04:13:26;;;;;;;11.20;10.00;;;;;;;17.85;79.54;98866.67;107738;1262;72185;-38
2023/06/26 04:15:54;;;;;;;11.20;10.00;;;;;;;17.87;79.77;98868.03;107215;1259;67698;-38
2023/06/26 04:18:21;;;;;;;9.80;8.80;;;;;;;17.92;79.72;98868.48;107249;1257;73445;-38
2023/06/26 04:21:07;;;;;;;10.30;8.90;;;;;;;17.98;79.56;98869.15;107254;1259;60084;-38
2023/06/26 04:23:34;;;;;;;10.30;9.30;;;;;;;18.02;79.43;98869.08;107318;1257;59519;-37
2023/06/26 04:26:03;;;;;;;10.30;9.30;;;;;;;17.99;78.95;98870.78;107184;1256;73105;-38
2023/06/26 04:28:34;;;;;;;10.90;9.80;;;;;;;17.94;79.30;98869.63;107215;1257;66291;-38
2023/06/26 04:31:03;;;;;;;11.90;9.60;;;;;;;17.96;79.41;98867.94;107208;1257;72677;-38
2023/06/26 04:33:31;;;;;;;10.90;9.80;;;;;;;18.00;79.44;98871.30;107181;1257;61696;-39
2023/06/26 04:36:03;;;;;;;10.80;9.70;;;;;;;18.03;79.03;98870.46;107177;1260;59852;-39
2023/06/26 04:38:34;;;;;;;12.40;11.00;;;;;;;18.02;79.00;98870.88;107308;1261;73072;-39
2023/06/26 04:41:02;;;;;;;11.90;10.20;;;;;;;17.98;79.26;98867.67;107136;1258;67752;-39
2023/06/26 04:43:30;;;;;;;10.20;9.00;;;;;;;18.02;79.85;98864.14;107254;1260;71487;-39
2023/06/26 04:45:58;;;;;;;11.40;10.00;;;;;;;18.11;79.69;98865.69;107153;1260;61770;-39
2023/06/26 04:48:30;;;;;;;11.00;9.90;;;;;;;18.16;79.17;98866.22;107275;1254;60110;-38
2023/06/26 04:50:58;;;;;;;11.40;10.20;;;;;;;18.15;79.01;98871.25;107303;1254;72964;-39
2023/06/26 04:53:26;;;;;;;11.30;9.50;;;;;;;18.12;79.05;98869.35;107304;1259;66345;-39
2023/06/26 04:55:54;;;;;;;10.20;9.20;;;;;;;18.17;79.26;98866.52;107292;1258;72656;-39
2023/06/26 04:58:21;;;;;;;13.90;10.10;;;;;;;18.26;79.34;98867.04;107296;1255;61662;-39
2023/06/26 05:00:50;;;;;;;11.90;10.70;;;;;;;18.33;79.26;98864.30;107410;1254;60488;-39
2023/06/26 05:03:18;;;;;;;12.70;11.50;;;;;;;18.34;78.80;98863.36;107304;1260;73870;-39
2023/06/26 05:05:46;;;;;;;13.10;10.90;;;;;;;18.29;78.66;98863.23;107302;1261;66306;-39
2023/06/26 05:08:15;;;;;;;12.30;10.40;;;;;;;18.29;78.99;98860.15;107274;1259;72692;-39
2023/06/26 05:10:43;;;;;;;12.20;11.00;;;;;;;18.34;79.34;98852.14;107307;1257;60715;-39
2023/06/26 05:13:11;;;;;;;11.70;10.50;;;;;;;18.43;79.22;98852.02;107276;1255;60297;-39
2023/06/26 05:15:38;;;;;;;13.70;11.80;;;;;;;18.50;79.27;98853.60;107186;1256;72623;-38
2023/06/26 05:18:06;;;;;;;12.40;11.10;;;;;;;18.61;79.27;98847.04;107255;1260;67913;-39
2023/06/26 05:20:35;;;;;;;11.80;10.50;;;;;;;18.73;78.47;98844.91;107302;1257;71325;-39
2023/06/26 05:23:03;;;;;;;12.60;11.40;;;;;;;18.85;77.80;98846.29;107376;1255;61119;-39
2023/06/26 05:25:31;;;;;;;13.30;11.00;;;;;;;18.93;77.84;98843.98;107304;1255;60408;-39
2023/06/26 05:28:00;;;;;;;14.60;11.00;;;;;;;18.98;77.48;98847.48;107298;1259;73883;-39
2023/06/26 05:30:28;;;;;;;13.80;11.90;;;;;;;19.00;77.58;98842.40;107337;1254;66794;-39
2023/06/26 05:32:56;;;;;;;13.70;12.30;;;;;;;18.97;76.10;98842.70;107276;1254;71750;-39
2023/06/26 05:35:23;;;;;;;12.10;10.90;;;;;;;18.89;75.72;98839.69;107223;1254;61717;-40
2023/06/26 05:37:51;;;;;;;12.90;11.40;;;;;;;18.77;75.76;98839.88;107219;1262;60307;-40
2023/06/26 05:40:20;;;;;;;13.40;11.60;;;;;;;18.68;76.41;98836.33;107238;1260;73833;-40
2023/06/26 05:42:48;;;;;;;13.20;11.80;;;;;;;18.66;76.42;98851.09;107406;1256;66643;-40
2023/06/26 05:45:16;;;;;;;15.60;13.00;;;;;;;18.63;76.71;98853.04;107232;1258;72694;-40
2023/06/26 05:47:43;;;;;;;14.20;12.70;;;;;;;18.65;77.19;98854.19;107260;1256;61662;-40
2023/06/26 05:50:12;;;;;;;15.10;12.10;;;;;;;18.71;76.92;98854.21;107251;1257;60418;-40
2023/06/26 05:52:40;;;;;;;12.70;11.40;;;;;;;18.76;76.36;98857.48;107209;1260;73898;-40
2023/06/26 05:55:10;;;;;;;12.40;11.20;;;;;;;18.76;75.71;98859.65;107279;1257;66586;-40
2023/06/26 05:57:37;;;;;;;13.40;12.00;;;;;;;18.76;75.27;98857.47;107242;1261;73022;-40
2023/06/26 06:00:10;;;;;;;14.30;12.80;;;;;;;18.73;75.41;98853.28;107210;1257;60366;-40
2023/06/26 06:02:42;;;;;;;15.00;11.40;;;;;;;18.74;75.65;98857.44;107276;1257;60376;-40
2023/06/26 06:05:10;;;;;;;13.20;11.90;;;;;;;18.80;76.54;98858.24;107200;1260;73879;-40
2023/06/26 06:07:37;;;;;;;12.60;11.30;;;;;;;18.87;76.47;98857.84;107184;1257;66968;-40
2023/06/26 06:10:05;;;;;;;14.60;11.10;;;;;;;18.95;75.94;98853.34;107203;1256;72681;-40
2023/06/26 06:12:33;;;;;;;12.90;10.90;;;;;;;19.00;75.21;98856.61;107200;1258;60428;-38
2023/06/26 06:15:00;;;;;;;11.20;10.00;;;;;;;19.03;74.52;98852.14;107245;1257;60412;-39
2023/06/26 06:17:28;;;;;;;12.40;10.20;;;;;;;19.05;74.15;98850.83;107232;1257;73838;-39
2023/06/26 06:19:56;;;;;;;10.00;8.90;;;;;;;19.08;73.77;98848.02;107203;1256;68082;-38
2023/06/26 06:22:24;;;;;;;11.80;9.00;;;;;;;19.07;72.61;98848.05;107228;1257;70496;-39
2023/06/26 06:24:51;;;;;;;10.30;9.10;;;;;;;18.99;72.55;98849.56;107166;1260;60537;-39
2023/06/26 06:27:19;;;;;;;10.60;8.90;;;;;;;18.91;72.64;98853.98;107198;1258;60543;-39
2023/06/26 06:29:47;;;;;;;9.40;8.50;;;;;;;18.84;73.06;98852.64;107368;1254;73874;-39
2023/06/26 06:32:14;;;;;;;9.40;8.40;;;;;;;18.84;73.38;98850.23;107186;1257;67893;-39
2023/06/26 06:34:42;;;;;;;9.40;8.30;;;;;;;18.86;73.50;98850.73;107171;1257;72747;-39
2023/06/26 06:37:10;;;;;;;9.20;8.20;;;;;;;18.87;73.42;98850.70;107105;1262;60360;-39
2023/06/26 06:39:37;;;;;;;8.60;7.30;;;;;;;18.86;73.07;98851.52;107319;1254;60395;-39
2023/06/26 06:42:05;;;;;;;8.90;7.80;;;;;;;18.90;73.55;98845.86;107245;1261;73952;-39
2023/06/26 06:44:47;;;;;;;8.80;7.60;;;;;;;18.99;73.51;98850.33;107282;1254;68437;-38
2023/06/26 06:47:19;;;;;;;8.30;5.70;;;;;;;19.06;72.41;98847.68;107081;1260;72689;-39
2023/06/26 06:49:50;;;;;;;6.50;5.70;;;;;;;19.08;70.64;98853.83;107328;1255;60303;-39
2023/06/26 06:52:17;;;;;;;6.60;6.00;;;;;;;19.10;70.23;98849.30;107284;1254;60437;-39
2023/06/26 06:54:55;;;;;;;7.40;5.90;;;;;;;19.11;70.30;98850.08;107228;1254;72578;-39
2023/06/26 06:57:22;;;;;;;7.40;5.80;;;;;;;19.13;69.29;98847.91;107214;1254;66809;-40
2023/06/26 06:59:50;;;;;;;9.10;5.90;;;;;;;19.11;69.95;98844.59;107284;1257;72648;-39
2023/06/26 07:02:18;;;;;;;6.20;5.60;;;;;;;19.10;69.97;98845.78;107193;1257;60669;-39
2023/06/26 07:04:46;;;;;;;6.40;5.60;;;;;;;19.10;70.10;98843.65;107216;1259;60039;-39
2023/06/26 07:07:14;;;;;;;5.80;5.20;;;;;;;19.10;69.75;98843.19;107196;1254;73831;-39
2023/06/26 07:09:41;;;;;;;6.50;5.30;;;;;;;19.13;69.98;98843.59;107247;1260;67747;-39
2023/06/26 07:12:09;;;;;;;6.20;5.20;;;;;;;19.19;69.87;98844.37;107271;1257;72692;-39
2023/06/26 07:14:37;;;;;;;5.80;5.20;;;;;;;19.26;69.90;98841.63;107245;1259;60856;-39
2023/06/26 07:17:05;;;;;;;5.90;5.10;;;;;;;19.33;69.89;98839.10;107278;1255;61193;-39
2023/06/26 07:19:32;;;;;;;4.90;4.40;;;;;;;19.35;69.04;98840.69;107343;1254;73817;-39
2023/06/26 07:22:00;;;;;;;5.20;4.20;;;;;;;19.39;68.96;98840.27;107448;1254;67585;-39
2023/06/26 07:24:27;;;;;;;5.60;5.00;;;;;;;19.44;68.83;98842.61;107259;1257;72707;-39
2023/06/26 07:26:55;;;;;;;5.70;4.20;;;;;;;19.45;67.99;98844.70;107245;1258;60973;-39
2023/06/26 07:29:23;;;;;;;5.40;4.90;;;;;;;19.42;68.42;98841.45;107171;1258;60272;-39
2023/06/26 07:31:51;;;;;;;6.30;5.20;;;;;;;19.42;68.87;98840.76;107158;1255;73883;-39
2023/06/26 07:34:19;;;;;;;5.40;4.70;;;;;;;19.47;69.08;98843.70;107314;1254;67592;-39
2023/06/26 07:36:46;;;;;;;6.20;5.00;;;;;;;19.57;68.72;98841.50;107277;1256;72735;-39
2023/06/26 07:39:14;;;;;;;5.40;4.90;;;;;;;19.65;68.85;98842.85;107234;1254;60421;-39
2023/06/26 07:41:48;;;;;;;7.10;5.30;;;;;;;19.72;68.78;98841.95;107165;1255;60508;-39
2023/06/26 07:44:16;;;;;;;7.50;5.50;;;;;;;19.80;68.88;98838.75;107246;1257;72552;-39
2023/06/26 07:46:47;;;;;;;6.40;5.20;;;;;;;19.91;68.55;98840.75;107216;1257;67920;-39
2023/06/26 07:49:15;;;;;;;6.50;5.40;;;;;;;19.99;67.24;98839.50;107282;1258;72785;-39
2023/06/26 07:51:42;;;;;;;6.10;5.50;;;;;;;20.02;67.48;98841.31;107251;1256;60402;-39
2023/06/26 07:54:10;;;;;;;6.00;5.40;;;;;;;20.01;67.28;98839.36;107225;1254;60389;-39
2023/06/26 07:57:02;;;;;;;6.50;5.30;;;;;;;19.97;66.38;98841.21;107248;1254;73841;-39
2023/06/26 07:59:32;;;;;;;7.10;5.30;;;;;;;19.85;66.26;98842.48;107076;1254;67857;-38
2023/06/26 08:01:59;;;;;;;7.50;6.00;;;;;;;19.74;67.08;98837.98;107275;1254;70998;-38
2023/06/26 08:04:28;;;;;;;7.80;5.70;;;;;;;19.74;67.49;98840.58;107187;1260;61039;-38
2023/06/26 08:06:56;;;;;;;6.10;5.30;;;;;;;19.82;67.92;98844.15;107204;1254;60329;-38
2023/06/26 08:09:26;;;;;;;7.70;5.20;;;;;;;19.92;68.05;98841.20;107139;1256;73839;-37
2023/06/26 08:11:54;;;;;;;5.70;4.90;;;;;;;20.03;68.00;98841.61;107257;1254;67736;-37
2023/06/26 08:14:22;;;;;;;6.20;5.10;;;;;;;20.13;67.36;98840.55;107275;1259;72675;-38
2023/06/26 08:16:49;;;;;;;5.00;4.50;;;;;;;20.16;66.25;98839.11;107275;1254;60402;-38
2023/06/26 08:19:17;;;;;;;6.30;5.70;;;;;;;20.19;65.21;98842.51;107312;1260;60757;-38
2023/06/26 08:21:45;;;;;;;5.90;5.20;;;;;;;20.18;65.39;98837.95;107304;1254;73962;-38
2023/06/26 08:24:13;;;;;;;6.10;5.50;;;;;;;20.19;65.58;98844.92;107312;1254;67879;-38
2023/06/26 08:26:40;;;;;;;7.20;5.50;;;;;;;20.19;65.99;98841.95;107226;1254;72506;-38
2023/06/26 08:29:08;;;;;;;6.70;5.90;;;;;;;20.20;65.89;98847.80;107286;1254;60503;-38
2023/06/26 08:31:39;;;;;;;7.30;6.00;;;;;;;20.18;65.86;98847.48;107306;1254;60555;-38
2023/06/26 08:34:07;;;;;;;7.50;6.10;;;;;;;20.19;66.28;98843.98;107297;1259;74142;-38
2023/06/26 08:36:35;;;;;;;6.50;5.80;;;;;;;20.31;66.57;98844.84;107288;1260;67901;-38
2023/06/26 08:39:04;;;;;;;6.70;5.60;;;;;;;20.45;65.99;98843.52;107311;1254;72772;-39
2023/06/26 08:41:32;;;;;;;6.60;5.80;;;;;;;20.54;65.20;98840.73;107272;1256;60413;-40
2023/06/26 08:44:00;;;;;;;7.50;6.10;;;;;;;20.54;64.47;98844.80;107244;1254;60697;-40
2023/06/26 08:46:28;;;;;;;6.20;5.40;;;;;;;20.47;64.55;98852.81;107332;1254;73911;-39
2023/06/26 08:48:57;;;;;;;6.40;4.90;;;;;;;20.35;64.62;98849.36;107234;1255;66622;-38
2023/06/26 08:51:25;;;;;;;6.00;4.60;;;;;;;20.31;64.95;98851.05;107104;1254;72710;-38
2023/06/26 08:54:00;;;;;;;4.80;3.50;;;;;;;20.35;64.95;98849.77;108664;1256;60552;-39
2023/06/26 08:56:40;;;;;;;7.10;3.30;;;;;;;20.40;63.87;98855.11;107228;1254;60348;-39
2023/06/26 08:59:08;;;;;;;4.00;3.10;;;;;;;20.43;63.50;98852.45;107128;1260;73920;-39
2023/06/26 09:01:36;;;;;;;4.70;4.00;;;;;;;20.37;63.88;98848.52;107176;1254;67897;-39
2023/06/26 09:04:04;;;;;;;5.00;4.50;;;;;;;20.35;64.69;98852.20;107690;1260;72731;-39
2023/06/26 09:06:33;;;;;;;5.70;4.90;;;;;;;20.37;65.18;98855.36;107468;1254;60376;-39
2023/06/26 09:09:00;;;;;;;4.00;3.60;;;;;;;20.44;65.44;98852.27;107226;1254;60377;-39
2023/06/26 09:11:28;;;;;;;5.30;3.20;;;;;;;20.54;64.57;98849.86;107221;1254;72358;-39
2023/06/26 09:13:56;;;;;;;3.80;2.40;;;;;;;20.60;63.31;98852.03;107281;1254;67637;-39
2023/06/26 09:16:26;;;;;;;4.90;2.70;;;;;;;20.62;62.43;98853.85;107129;1257;72650;-39
2023/06/26 09:18:55;;;;;;;2.20;2.00;;;;;;;20.62;62.62;98856.69;107235;1254;60511;-39
2023/06/26 09:21:24;;;;;;;6.10;2.10;;;;;;;20.60;62.80;98854.55;107276;1254;60530;-39
2023/06/26 09:23:52;;;;;;;1.80;1.60;;;;;;;20.62;63.20;98858.73;107299;1254;74439;-39
2023/06/26 09:26:21;;;;;;;1.80;1.60;;;;;;;20.68;62.30;98856.89;107253;1254;68013;-39
2023/06/26 09:28:49;;;;;;;3.40;1.80;;;;;;;20.80;62.16;98862.69;107284;1254;71428;-39
2023/06/26 09:31:17;;;;;;;1.80;1.40;;;;;;;20.92;61.21;98857.05;107215;1256;60482;-39
2023/06/26 09:34:05;;;;;;;3.10;1.30;;;;;;;21.02;60.78;98858.39;107287;1257;60263;-39
2023/06/26 09:36:33;;;;;;;1.60;1.10;;;;;;;21.11;59.72;98858.17;107312;1257;73917;-39
2023/06/26 09:39:15;;;;;;;1.30;1.20;;;;;;;21.23;60.46;98861.27;107382;1254;66758;-39
2023/06/26 09:42:20;;;;;;;1.50;1.20;;;;;;;21.38;60.00;98862.37;107410;1254;71170;-38
2023/06/26 09:44:48;;;;;;;5.00;1.40;;;;;;;21.46;59.72;98860.83;107556;1254;60374;-43
2023/06/26 09:47:16;;;;;;;3.20;1.30;;;;;;;21.52;60.73;98857.23;107261;1254;60371;-39
2023/06/26 09:49:43;;;;;;;2.00;1.30;;;;;;;21.60;60.64;98856.41;107234;1254;73847;-39
2023/06/26 09:52:19;;;;;;;1.20;1.10;;;;;;;21.71;58.95;98857.79;107164;1254;67593;-38
2023/06/26 09:54:46;;;;;;;3.40;1.20;;;;;;;21.75;58.00;98859.48;107484;1254;72508;-38
2023/06/26 09:57:18;;;;;;;4.00;1.40;;;;;;;21.69;57.51;98860.14;107507;1253;60399;-38
2023/06/26 09:59:46;;;;;;;1.90;1.20;;;;;;;21.63;58.40;98864.73;107574;1253;60335;-38
2023/06/26 10:02:13;;;;;;;1.60;1.30;;;;;;;21.63;58.53;98867.34;107499;1254;73896;-38
2023/06/26 10:04:41;;;;;;;2.40;1.60;;;;;;;21.66;58.97;98862.44;107539;1253;68254;-38
2023/06/26 10:07:11;;;;;;;1.70;1.30;;;;;;;21.70;59.08;98862.39;107621;1254;73060;-38
2023/06/26 10:09:41;;;;;;;1.90;1.70;;;;;;;21.68;58.58;98863.95;107573;1254;60323;-38
2023/06/26 10:12:19;;;;;;;1.90;1.50;;;;;;;21.57;58.89;98856.29;107576;1254;62383;-38
2023/06/26 10:14:47;;;;;;;1.90;1.30;;;;;;;21.49;59.23;98858.87;107536;1256;73868;-38
2023/06/26 10:17:16;;;;;;;2.00;1.50;;;;;;;21.45;58.98;98857.57;107476;1254;67997;-38
2023/06/26 10:19:44;;;;;;;4.80;1.30;;;;;;;21.47;59.27;98860.25;107678;1253;71377;-38
2023/06/26 10:22:14;;;;;;;1.70;1.30;;;;;;;21.56;59.54;98855.78;107493;1253;60563;-38
2023/06/26 10:24:41;;;;;;;2.60;1.30;;;;;;;21.80;59.21;98862.50;107376;1258;59565;-38
2023/06/26 10:27:19;;;;;;;1.60;1.40;;;;;;;22.07;57.46;98858.30;107360;1252;72982;-38
2023/06/26 10:29:55;;;;;;;1.70;1.60;;;;;;;22.28;57.24;98856.60;107433;1254;66420;-38
2023/06/26 10:32:25;;;;;;;2.10;1.40;;;;;;;22.48;57.32;98857.48;107558;1253;72693;-38
2023/06/26 10:34:53;;;;;;;3.30;1.80;;;;;;;22.61;56.22;98862.36;107565;1254;60318;-38
2023/06/26 10:37:20;;;;;;;1.80;1.20;;;;;;;22.65;55.17;98864.81;107483;1256;60280;-38
2023/06/26 10:39:49;;;;;;;1.70;1.50;;;;;;;22.64;55.11;98866.77;107561;1254;73920;-38
2023/06/26 10:42:18;;;;;;;2.10;1.60;;;;;;;22.70;55.27;98862.30;107613;1254;67945;-38
2023/06/26 10:44:47;;;;;;;1.30;1.20;;;;;;;22.81;56.01;98855.30;107553;1254;72666;-38
2023/06/26 10:47:31;;;;;;;1.70;1.30;;;;;;;23.01;54.88;98855.34;107662;1256;60537;-38
2023/06/26 10:50:19;;;;;;;1.50;1.40;;;;;;;23.07;54.06;98853.27;107503;1254;60325;-38
2023/06/26 10:53:09;;;;;;;1.50;1.40;;;;;;;23.06;54.04;98856.33;107659;1254;73836;-38
2023/06/26 10:55:37;;;;;;;2.20;1.70;;;;;;;23.11;54.22;98858.80;107587;1253;67884;-38
2023/06/26 10:58:07;;;;;;;1.70;1.30;;;;;;;23.21;53.40;98857.91;107612;1253;71391;-38
2023/06/26 11:00:35;;;;;;;1.30;1.10;;;;;;;23.32;53.16;98862.15;107335;1254;60190;-39
2023/06/26 11:03:22;;;;;;;3.10;1.30;;;;;;;23.27;52.36;98865.27;107652;1254;60957;-37
2023/06/26 11:06:11;;;;;;;1.30;1.20;;;;;;;23.16;52.82;98863.42;107643;1253;72532;-37
2023/06/26 11:08:49;;;;;;;1.60;1.50;;;;;;;23.15;53.73;98860.84;107519;1254;69768;-38
2023/06/26 11:11:16;;;;;;;2.00;1.60;;;;;;;23.24;54.34;98857.02;107545;1254;71907;-39
2023/06/26 11:13:45;;;;;;;1.30;1.20;;;;;;;23.41;54.21;98863.10;108258;1253;60362;-38
2023/06/26 11:16:14;;;;;;;2.90;1.40;;;;;;;23.54;53.36;98865.91;107409;1253;60151;-39
2023/06/26 11:18:42;;;;;;;1.40;1.30;;;;;;;23.59;53.34;98862.15;107695;1254;72984;-38
2023/06/26 11:21:13;;;;;;;1.80;1.30;;;;;;;23.65;53.34;98861.71;107587;1256;67908;-38
2023/06/26 11:23:40;;;;;;;2.90;1.50;;;;;;;23.78;53.24;98861.81;107644;1254;73116;-38
2023/06/26 11:26:21;;;;;;;1.60;1.40;;;;;;;23.88;51.84;98860.45;107563;1256;60418;-39
2023/06/26 11:28:55;;;;;;;2.70;1.40;;;;;;;23.87;51.95;98867.80;107646;1253;60300;-38
2023/06/26 11:31:33;;;;;;;1.30;1.20;;;;;;;23.88;52.54;98861.25;107645;1254;73943;-38
2023/06/26 11:34:12;;;;;;;2.90;1.50;;;;;;;23.99;52.22;98863.60;107604;1253;68075;-38
2023/06/26 11:36:42;;;;;;;1.40;1.30;;;;;;;24.06;51.92;98862.34;107570;1253;72642;-38
2023/06/26 11:39:10;;;;;;;2.90;1.30;;;;;;;24.09;51.22;98867.42;107690;1252;59587;-38